Flight Track Log - Related Links

Times and Time Zones

All times are in EDT time to prevent confusion due to time zone crossing. See the CNS13 flight status page for this flight to view local times or setup timezone preferences in your user account.

Time Position Orientation Groundspeed Altitude Reporting Facility
EDT Latitude Longitude Course Direction KTS MPH feet Rate Location/Type
Thu 05:13:44 PM 41.6667 -70.2586 321° Northwest 250 288 10,500  Level Boston Center
Thu 05:14:44 PM 41.7256 -70.2844 342° North 239 275 10,600 50 Climbing Boston Center
Thu 05:15:45 PM 41.7864 -70.3072 344° North 227 261 10,600  Level Boston Center
Thu 05:16:44 PM 41.8408 -70.3306 342° North 222 255 10,600  Level Boston Center
Thu 05:17:00 PM 41.7923 -70.2810 343° North  Level Estimated
Thu 05:17:44 PM 41.8997 -70.3536 344° North 217 250 10,600  Level Boston Center
Thu 05:18:00 PM 41.8462 -70.3032 343° North  Level Estimated
Thu 05:18:44 PM 41.9564 -70.3742 345° North 217 250 10,600  Level Boston Center
Thu 05:19:00 PM 41.8908 -70.3513 321° Northwest  Level FlightAware Approximate
Thu 05:19:25 PM 42.0000 -70.3833 351° North 214 246 10,400  Level KA90
Thu 05:20:20 PM 42.0500 -70.4000 346° North 220 253 10,500 52 Climbing KA90
Thu 05:21:21 PM 42.1000 -70.4333 334° Northwest 216 249 10,500  Level KA90
Thu 05:22:21 PM 42.1667 -70.4500 350° North 213 245 10,500  Level KA90
Thu 05:23:19 PM 42.2167 -70.4667 346° North 216 249 10,500  Level KA90
Thu 05:24:20 PM 42.2833 -70.5000 340° North 216 249 10,500  Level KA90
Thu 05:25:21 PM 42.3333 -70.5167 346° North 218 251 10,500  Level KA90
Thu 05:26:21 PM 42.4000 -70.5500 340° North 225 259 10,500 -72 Level KA90
Thu 05:26:44 PM 42.4222 -70.5586 344° North 211 243 10,400 -434 Descending Boston Center
Thu 05:27:44 PM 42.4853 -70.5819 345° North 216 249 9,900 -750 Descending Boston Center
Thu 05:28:44 PM 42.5481 -70.6053 345° North 227 261 8,900 -950 Descending Boston Center
Thu 05:29:44 PM 42.6047 -70.6292 343° North 227 261 8,000 -800 Descending Boston Center
Thu 05:30:44 PM 42.6489 -70.6506 340° North 194 223 7,300 -750 Descending Boston Center
Thu 05:31:44 PM 42.7056 -70.6742 343° North 181 208 6,500 -808 Descending Boston Center
Thu 05:33:20 PM 42.8000 -70.6667 North 204 235 5,200 -815 Descending KA90
Thu 05:34:26 PM 42.8500 -70.6500 14° North 193 222 4,300 -803 Descending KA90
Thu 05:35:27 PM 42.9000 -70.6667 346° North 163 188 3,500 -595 Descending KA90
Thu 05:36:27 PM 42.9333 -70.7000 324° Northwest 147 169 3,100 -550 Descending KA90
Thu 05:37:16 PM 42.9667 -70.7167 340° North 135 155 2,500 -684 Descending KA90
Thu 05:38:21 PM 43.0000 -70.7500 324° Northwest 125 144 1,800 -667 Descending KA90
Thu 05:39:22 PM 43.0167 -70.7833 304° West 124 143 1,100 -645 Descending KA90
Thu 05:40:22 PM 43.0500 -70.8000 340° North 106 122 500 -600 Descending KA90
Thu 05:42:00 PM 43.0667 -70.8167 340° North  Level FlightAware Approximate
Thu 05:49:00 PM 43.0779 -70.8233 340° North  Level Estimated

Login

Don't have an account? Register now (free) for customized features, flight alerts, and more!